sensor_id;sensor_type;location;lat;lon;timestamp;P1;durP1;ratioP1;P2;durP2;ratioP2
32946;SDS011;54465;51.230;22.504;2022-11-20T00:00:27;31.30;;;17.30;;
32946;SDS011;54465;51.230;22.504;2022-11-20T00:03:29;29.58;;;17.40;;
32946;SDS011;54465;51.230;22.504;2022-11-20T00:06:32;27.48;;;16.27;;
32946;SDS011;54465;51.230;22.504;2022-11-20T00:09:43;29.20;;;16.48;;
32946;SDS011;54465;51.230;22.504;2022-11-20T00:12:46;30.60;;;16.15;;
32946;SDS011;54465;51.230;22.504;2022-11-20T00:15:48;29.92;;;17.17;;
32946;SDS011;54465;51.230;22.504;2022-11-20T00:18:59;23.58;;;15.07;;
32946;SDS011;54465;51.230;22.504;2022-11-20T00:22:02;30.38;;;16.42;;
32946;SDS011;54465;51.230;22.504;2022-11-20T00:25:06;29.00;;;16.42;;
32946;SDS011;54465;51.230;22.504;2022-11-20T00:28:09;28.70;;;15.80;;
32946;SDS011;54465;51.230;22.504;2022-11-20T00:31:11;28.70;;;15.75;;
32946;SDS011;54465;51.230;22.504;2022-11-20T00:34:14;32.15;;;16.67;;
32946;SDS011;54465;51.230;22.504;2022-11-20T00:37:16;27.88;;;15.52;;
32946;SDS011;54465;51.230;22.504;2022-11-20T00:40:20;23.95;;;14.30;;
32946;SDS011;54465;51.230;22.504;2022-11-20T00:43:23;27.50;;;15.20;;
32946;SDS011;54465;51.230;22.504;2022-11-20T00:46:25;24.30;;;14.07;;
32946;SDS011;54465;51.230;22.504;2022-11-20T00:49:29;28.38;;;15.73;;
32946;SDS011;54465;51.230;22.504;2022-11-20T00:52:31;26.33;;;14.38;;
32946;SDS011;54465;51.230;22.504;2022-11-20T00:55:36;25.27;;;14.73;;
32946;SDS011;54465;51.230;22.504;2022-11-20T00:58:39;24.88;;;14.18;;
32946;SDS011;54465;51.230;22.504;2022-11-20T01:01:43;32.05;;;15.75;;
32946;SDS011;54465;51.230;22.504;2022-11-20T01:04:45;29.25;;;17.05;;
32946;SDS011;54465;51.230;22.504;2022-11-20T01:07:47;34.20;;;15.88;;
32946;SDS011;54465;51.230;22.504;2022-11-20T01:10:52;27.27;;;15.63;;
32946;SDS011;54465;51.230;22.504;2022-11-20T01:14:02;28.70;;;15.65;;
32946;SDS011;54465;51.230;22.504;2022-11-20T01:17:05;27.45;;;15.27;;
32946;SDS011;54465;51.230;22.504;2022-11-20T01:20:08;28.63;;;15.93;;
32946;SDS011;54465;51.230;22.504;2022-11-20T01:23:11;27.70;;;15.30;;
32946;SDS011;54465;51.230;22.504;2022-11-20T01:26:15;25.63;;;14.40;;
32946;SDS011;54465;51.230;22.504;2022-11-20T01:29:20;24.33;;;14.82;;
32946;SDS011;54465;51.230;22.504;2022-11-20T01:32:23;28.05;;;14.05;;
32946;SDS011;54465;51.230;22.504;2022-11-20T01:35:25;27.77;;;14.43;;
32946;SDS011;54465;51.230;22.504;2022-11-20T01:38:28;26.00;;;14.10;;
32946;SDS011;54465;51.230;22.504;2022-11-20T01:41:33;22.05;;;12.80;;
32946;SDS011;54465;51.230;22.504;2022-11-20T01:44:53;21.33;;;13.15;;
32946;SDS011;54465;51.230;22.504;2022-11-20T01:47:56;21.58;;;12.65;;
32946;SDS011;54465;51.230;22.504;2022-11-20T01:50:58;21.90;;;11.95;;
32946;SDS011;54465;51.230;22.504;2022-11-20T01:54:05;23.90;;;13.13;;
32946;SDS011;54465;51.230;22.504;2022-11-20T01:57:12;22.33;;;13.43;;
32946;SDS011;54465;51.230;22.504;2022-11-20T02:00:17;22.88;;;12.68;;
32946;SDS011;54465;51.230;22.504;2022-11-20T02:03:21;20.65;;;11.95;;
32946;SDS011;54465;51.230;22.504;2022-11-20T02:06:24;21.77;;;12.25;;
32946;SDS011;54465;51.230;22.504;2022-11-20T02:09:31;25.65;;;12.45;;
32946;SDS011;54465;51.230;22.504;2022-11-20T02:12:35;22.13;;;11.25;;
32946;SDS011;54465;51.230;22.504;2022-11-20T02:15:51;20.47;;;12.47;;
32946;SDS011;54465;51.230;22.504;2022-11-20T02:18:54;21.63;;;12.48;;
32946;SDS011;54465;51.230;22.504;2022-11-20T02:21:59;20.38;;;12.65;;
32946;SDS011;54465;51.230;22.504;2022-11-20T02:25:10;21.33;;;11.63;;
32946;SDS011;54465;51.230;22.504;2022-11-20T02:28:13;19.85;;;12.20;;
32946;SDS011;54465;51.230;22.504;2022-11-20T02:31:16;21.70;;;12.52;;
32946;SDS011;54465;51.230;22.504;2022-11-20T02:34:19;19.77;;;12.50;;
32946;SDS011;54465;51.230;22.504;2022-11-20T02:37:21;18.48;;;11.80;;
32946;SDS011;54465;51.230;22.504;2022-11-20T02:40:29;20.10;;;11.95;;
32946;SDS011;54465;51.230;22.504;2022-11-20T02:43:32;18.60;;;11.38;;
32946;SDS011;54465;51.230;22.504;2022-11-20T02:46:34;18.52;;;10.88;;
32946;SDS011;54465;51.230;22.504;2022-11-20T02:49:36;16.20;;;10.05;;
32946;SDS011;54465;51.230;22.504;2022-11-20T02:52:39;18.15;;;11.30;;
32946;SDS011;54465;51.230;22.504;2022-11-20T02:55:43;20.70;;;11.60;;
32946;SDS011;54465;51.230;22.504;2022-11-20T02:58:46;17.00;;;10.43;;
32946;SDS011;54465;51.230;22.504;2022-11-20T03:01:48;19.92;;;11.25;;
32946;SDS011;54465;51.230;22.504;2022-11-20T03:04:50;19.45;;;10.77;;
32946;SDS011;54465;51.230;22.504;2022-11-20T03:07:53;19.17;;;11.57;;
32946;SDS011;54465;51.230;22.504;2022-11-20T03:10:56;19.88;;;12.23;;
32946;SDS011;54465;51.230;22.504;2022-11-20T03:14:03;21.67;;;11.67;;
32946;SDS011;54465;51.230;22.504;2022-11-20T03:17:05;19.60;;;11.07;;
32946;SDS011;54465;51.230;22.504;2022-11-20T03:20:09;16.85;;;11.00;;
32946;SDS011;54465;51.230;22.504;2022-11-20T03:23:12;16.30;;;10.48;;
32946;SDS011;54465;51.230;22.504;2022-11-20T03:26:17;18.05;;;11.40;;
32946;SDS011;54465;51.230;22.504;2022-11-20T03:29:21;16.25;;;10.25;;
32946;SDS011;54465;51.230;22.504;2022-11-20T03:32:24;16.83;;;10.50;;
32946;SDS011;54465;51.230;22.504;2022-11-20T03:35:26;17.08;;;11.23;;
32946;SDS011;54465;51.230;22.504;2022-11-20T03:38:28;18.00;;;11.40;;
32946;SDS011;54465;51.230;22.504;2022-11-20T03:41:38;18.10;;;11.18;;
32946;SDS011;54465;51.230;22.504;2022-11-20T03:44:41;17.60;;;10.32;;
32946;SDS011;54465;51.230;22.504;2022-11-20T03:47:44;17.80;;;10.98;;
32946;SDS011;54465;51.230;22.504;2022-11-20T03:50:47;16.60;;;10.68;;
32946;SDS011;54465;51.230;22.504;2022-11-20T03:53:49;17.00;;;10.68;;
32946;SDS011;54465;51.230;22.504;2022-11-20T03:56:55;15.98;;;10.38;;
32946;SDS011;54465;51.230;22.504;2022-11-20T03:59:57;18.58;;;10.93;;
32946;SDS011;54465;51.230;22.504;2022-11-20T04:02:59;20.23;;;11.32;;
32946;SDS011;54465;51.230;22.504;2022-11-20T04:06:02;17.30;;;10.82;;
32946;SDS011;54465;51.230;22.504;2022-11-20T04:09:05;18.48;;;11.18;;
32946;SDS011;54465;51.230;22.504;2022-11-20T04:12:09;18.95;;;11.32;;
32946;SDS011;54465;51.230;22.504;2022-11-20T04:15:12;17.90;;;10.60;;
32946;SDS011;54465;51.230;22.504;2022-11-20T04:18:15;20.50;;;10.98;;
32946;SDS011;54465;51.230;22.504;2022-11-20T04:21:17;18.27;;;11.18;;
32946;SDS011;54465;51.230;22.504;2022-11-20T04:24:20;18.80;;;11.27;;
32946;SDS011;54465;51.230;22.504;2022-11-20T04:27:26;18.40;;;10.63;;
32946;SDS011;54465;51.230;22.504;2022-11-20T04:30:29;18.50;;;11.25;;
32946;SDS011;54465;51.230;22.504;2022-11-20T04:33:32;16.33;;;11.13;;
32946;SDS011;54465;51.230;22.504;2022-11-20T04:36:35;18.77;;;11.98;;
32946;SDS011;54465;51.230;22.504;2022-11-20T04:39:39;19.30;;;11.60;;
32946;SDS011;54465;51.230;22.504;2022-11-20T04:42:45;19.58;;;11.85;;
32946;SDS011;54465;51.230;22.504;2022-11-20T04:45:50;23.55;;;12.50;;
32946;SDS011;54465;51.230;22.504;2022-11-20T04:48:53;21.77;;;12.30;;
32946;SDS011;54465;51.230;22.504;2022-11-20T04:51:55;19.75;;;12.00;;
32946;SDS011;54465;51.230;22.504;2022-11-20T04:54:57;19.88;;;11.43;;
32946;SDS011;54465;51.230;22.504;2022-11-20T04:58:01;18.00;;;11.23;;
32946;SDS011;54465;51.230;22.504;2022-11-20T05:01:04;17.80;;;10.88;;
32946;SDS011;54465;51.230;22.504;2022-11-20T05:04:10;19.58;;;12.18;;
32946;SDS011;54465;51.230;22.504;2022-11-20T05:07:13;20.60;;;13.10;;
32946;SDS011;54465;51.230;22.504;2022-11-20T05:10:15;19.20;;;11.82;;
32946;SDS011;54465;51.230;22.504;2022-11-20T05:13:19;20.48;;;12.35;;
32946;SDS011;54465;51.230;22.504;2022-11-20T05:16:22;18.48;;;11.20;;
32946;SDS011;54465;51.230;22.504;2022-11-20T05:19:25;19.25;;;11.65;;
32946;SDS011;54465;51.230;22.504;2022-11-20T05:22:28;18.42;;;11.35;;
32946;SDS011;54465;51.230;22.504;2022-11-20T05:25:33;18.30;;;11.07;;
32946;SDS011;54465;51.230;22.504;2022-11-20T05:28:38;20.13;;;11.63;;
32946;SDS011;54465;51.230;22.504;2022-11-20T05:31:40;16.20;;;11.23;;
32946;SDS011;54465;51.230;22.504;2022-11-20T05:34:45;17.30;;;11.20;;
32946;SDS011;54465;51.230;22.504;2022-11-20T05:37:48;17.95;;;11.18;;
32946;SDS011;54465;51.230;22.504;2022-11-20T05:40:50;18.73;;;11.75;;
32946;SDS011;54465;51.230;22.504;2022-11-20T05:43:55;17.48;;;11.43;;
32946;SDS011;54465;51.230;22.504;2022-11-20T05:46:58;16.63;;;10.88;;
32946;SDS011;54465;51.230;22.504;2022-11-20T05:50:00;20.80;;;11.55;;
32946;SDS011;54465;51.230;22.504;2022-11-20T05:53:03;19.92;;;11.88;;
32946;SDS011;54465;51.230;22.504;2022-11-20T05:56:07;19.77;;;10.88;;
32946;SDS011;54465;51.230;22.504;2022-11-20T05:59:12;19.30;;;11.52;;
32946;SDS011;54465;51.230;22.504;2022-11-20T06:02:14;17.17;;;11.05;;
32946;SDS011;54465;51.230;22.504;2022-11-20T06:05:17;19.42;;;11.68;;
32946;SDS011;54465;51.230;22.504;2022-11-20T06:08:23;18.98;;;11.70;;
32946;SDS011;54465;51.230;22.504;2022-11-20T06:11:26;20.25;;;11.50;;
32946;SDS011;54465;51.230;22.504;2022-11-20T06:14:30;20.17;;;11.73;;
32946;SDS011;54465;51.230;22.504;2022-11-20T06:17:33;18.67;;;11.40;;
32946;SDS011;54465;51.230;22.504;2022-11-20T06:20:35;17.65;;;11.25;;
32946;SDS011;54465;51.230;22.504;2022-11-20T06:23:38;19.73;;;11.45;;
32946;SDS011;54465;51.230;22.504;2022-11-20T06:26:40;21.33;;;12.35;;
32946;SDS011;54465;51.230;22.504;2022-11-20T06:29:44;16.50;;;11.15;;
32946;SDS011;54465;51.230;22.504;2022-11-20T06:32:47;19.08;;;11.52;;
32946;SDS011;54465;51.230;22.504;2022-11-20T06:35:49;19.63;;;11.95;;
32946;SDS011;54465;51.230;22.504;2022-11-20T06:38:53;18.70;;;11.73;;
32946;SDS011;54465;51.230;22.504;2022-11-20T06:41:56;21.85;;;12.35;;
32946;SDS011;54465;51.230;22.504;2022-11-20T06:45:01;16.77;;;10.82;;
32946;SDS011;54465;51.230;22.504;2022-11-20T06:48:03;18.30;;;12.10;;
32946;SDS011;54465;51.230;22.504;2022-11-20T06:51:09;19.90;;;12.45;;
32946;SDS011;54465;51.230;22.504;2022-11-20T06:54:12;18.27;;;11.32;;
32946;SDS011;54465;51.230;22.504;2022-11-20T06:57:15;22.23;;;12.63;;
32946;SDS011;54465;51.230;22.504;2022-11-20T07:00:21;21.33;;;12.13;;
32946;SDS011;54465;51.230;22.504;2022-11-20T07:03:23;18.40;;;12.00;;
32946;SDS011;54465;51.230;22.504;2022-11-20T07:06:27;20.48;;;12.00;;
32946;SDS011;54465;51.230;22.504;2022-11-20T07:09:29;21.85;;;12.50;;
32946;SDS011;54465;51.230;22.504;2022-11-20T07:12:32;21.63;;;11.95;;
32946;SDS011;54465;51.230;22.504;2022-11-20T07:15:36;17.50;;;10.95;;
32946;SDS011;54465;51.230;22.504;2022-11-20T07:18:38;20.65;;;11.93;;
32946;SDS011;54465;51.230;22.504;2022-11-20T07:21:40;20.10;;;11.48;;
32946;SDS011;54465;51.230;22.504;2022-11-20T07:24:44;16.83;;;11.27;;
32946;SDS011;54465;51.230;22.504;2022-11-20T07:27:47;19.13;;;11.75;;
32946;SDS011;54465;51.230;22.504;2022-11-20T07:30:52;16.52;;;11.00;;
32946;SDS011;54465;51.230;22.504;2022-11-20T07:33:55;18.95;;;11.60;;
32946;SDS011;54465;51.230;22.504;2022-11-20T07:36:57;19.48;;;11.15;;
32946;SDS011;54465;51.230;22.504;2022-11-20T07:39:59;18.60;;;11.23;;
32946;SDS011;54465;51.230;22.504;2022-11-20T07:43:02;18.85;;;11.30;;
32946;SDS011;54465;51.230;22.504;2022-11-20T07:46:06;19.83;;;12.18;;
32946;SDS011;54465;51.230;22.504;2022-11-20T07:49:08;19.23;;;11.80;;
32946;SDS011;54465;51.230;22.504;2022-11-20T07:52:11;18.70;;;11.35;;
32946;SDS011;54465;51.230;22.504;2022-11-20T07:55:13;17.70;;;10.70;;
32946;SDS011;54465;51.230;22.504;2022-11-20T07:58:16;16.38;;;10.05;;
32946;SDS011;54465;51.230;22.504;2022-11-20T08:01:20;20.65;;;11.27;;
32946;SDS011;54465;51.230;22.504;2022-11-20T08:04:22;14.52;;;9.80;;
32946;SDS011;54465;51.230;22.504;2022-11-20T08:07:25;15.85;;;10.52;;
32946;SDS011;54465;51.230;22.504;2022-11-20T08:10:27;17.42;;;10.40;;
32946;SDS011;54465;51.230;22.504;2022-11-20T08:13:30;15.55;;;10.23;;
32946;SDS011;54465;51.230;22.504;2022-11-20T08:16:51;16.65;;;10.38;;
32946;SDS011;54465;51.230;22.504;2022-11-20T08:19:54;16.55;;;10.13;;
32946;SDS011;54465;51.230;22.504;2022-11-20T08:22:57;20.92;;;10.13;;
32946;SDS011;54465;51.230;22.504;2022-11-20T08:26:03;16.58;;;10.18;;
32946;SDS011;54465;51.230;22.504;2022-11-20T08:29:06;17.77;;;10.68;;
32946;SDS011;54465;51.230;22.504;2022-11-20T08:32:11;16.88;;;10.30;;
32946;SDS011;54465;51.230;22.504;2022-11-20T08:35:13;18.48;;;11.05;;
32946;SDS011;54465;51.230;22.504;2022-11-20T08:38:17;17.05;;;10.38;;
32946;SDS011;54465;51.230;22.504;2022-11-20T08:41:21;21.88;;;11.43;;
32946;SDS011;54465;51.230;22.504;2022-11-20T08:44:28;17.95;;;10.48;;
32946;SDS011;54465;51.230;22.504;2022-11-20T08:47:33;16.92;;;9.93;;
32946;SDS011;54465;51.230;22.504;2022-11-20T08:50:35;17.85;;;10.70;;
32946;SDS011;54465;51.230;22.504;2022-11-20T08:53:37;16.50;;;10.27;;
32946;SDS011;54465;51.230;22.504;2022-11-20T08:56:41;18.75;;;11.05;;
32946;SDS011;54465;51.230;22.504;2022-11-20T08:59:43;17.25;;;10.32;;
32946;SDS011;54465;51.230;22.504;2022-11-20T09:02:48;17.85;;;10.70;;
32946;SDS011;54465;51.230;22.504;2022-11-20T09:05:51;18.33;;;10.43;;
32946;SDS011;54465;51.230;22.504;2022-11-20T09:08:58;17.17;;;10.23;;
32946;SDS011;54465;51.230;22.504;2022-11-20T09:12:01;19.13;;;10.55;;
32946;SDS011;54465;51.230;22.504;2022-11-20T09:15:05;18.95;;;10.35;;
32946;SDS011;54465;51.230;22.504;2022-11-20T09:18:10;18.63;;;10.85;;
32946;SDS011;54465;51.230;22.504;2022-11-20T09:21:13;15.43;;;9.75;;
32946;SDS011;54465;51.230;22.504;2022-11-20T09:24:15;16.58;;;9.98;;
32946;SDS011;54465;51.230;22.504;2022-11-20T09:27:18;14.60;;;8.95;;
32946;SDS011;54465;51.230;22.504;2022-11-20T09:30:24;16.02;;;9.07;;
32946;SDS011;54465;51.230;22.504;2022-11-20T09:33:29;16.50;;;9.50;;
32946;SDS011;54465;51.230;22.504;2022-11-20T09:36:32;15.35;;;9.18;;
32946;SDS011;54465;51.230;22.504;2022-11-20T09:39:34;14.93;;;8.90;;
32946;SDS011;54465;51.230;22.504;2022-11-20T09:42:39;14.02;;;10.02;;
32946;SDS011;54465;51.230;22.504;2022-11-20T09:45:55;17.30;;;9.70;;
32946;SDS011;54465;51.230;22.504;2022-11-20T09:49:09;17.58;;;8.77;;
32946;SDS011;54465;51.230;22.504;2022-11-20T09:52:27;15.63;;;9.32;;
32946;SDS011;54465;51.230;22.504;2022-11-20T09:55:37;18.25;;;8.90;;
32946;SDS011;54465;51.230;22.504;2022-11-20T09:58:41;17.73;;;9.93;;
32946;SDS011;54465;51.230;22.504;2022-11-20T10:01:46;16.48;;;9.45;;
32946;SDS011;54465;51.230;22.504;2022-11-20T10:04:51;15.88;;;9.75;;
32946;SDS011;54465;51.230;22.504;2022-11-20T10:08:07;16.60;;;9.07;;
32946;SDS011;54465;51.230;22.504;2022-11-20T10:11:18;18.95;;;9.63;;
32946;SDS011;54465;51.230;22.504;2022-11-20T10:14:30;16.88;;;10.23;;
32946;SDS011;54465;51.230;22.504;2022-11-20T10:17:58;15.68;;;8.98;;
32946;SDS011;54465;51.230;22.504;2022-11-20T10:24:48;14.90;;;9.15;;
32946;SDS011;54465;51.230;22.504;2022-11-20T10:28:11;15.15;;;9.48;;
32946;SDS011;54465;51.230;22.504;2022-11-20T10:34:49;15.32;;;8.43;;
32946;SDS011;54465;51.230;22.504;2022-11-20T10:37:58;14.18;;;8.32;;
32946;SDS011;54465;51.230;22.504;2022-11-20T10:41:01;18.90;;;9.43;;
32946;SDS011;54465;51.230;22.504;2022-11-20T10:44:19;14.00;;;9.00;;
32946;SDS011;54465;51.230;22.504;2022-11-20T10:47:38;15.15;;;9.27;;
32946;SDS011;54465;51.230;22.504;2022-11-20T10:50:46;15.23;;;8.88;;
32946;SDS011;54465;51.230;22.504;2022-11-20T10:57:43;14.40;;;9.57;;
32946;SDS011;54465;51.230;22.504;2022-11-20T11:01:02;15.80;;;8.95;;
32946;SDS011;54465;51.230;22.504;2022-11-20T11:04:07;15.05;;;9.15;;
32946;SDS011;54465;51.230;22.504;2022-11-20T11:07:23;14.80;;;8.98;;
32946;SDS011;54465;51.230;22.504;2022-11-20T11:10:32;14.40;;;9.37;;
32946;SDS011;54465;51.230;22.504;2022-11-20T11:13:43;15.73;;;9.35;;
32946;SDS011;54465;51.230;22.504;2022-11-20T11:16:49;14.77;;;9.07;;
32946;SDS011;54465;51.230;22.504;2022-11-20T11:20:00;14.35;;;8.75;;
32946;SDS011;54465;51.230;22.504;2022-11-20T11:23:05;14.27;;;8.63;;
32946;SDS011;54465;51.230;22.504;2022-11-20T11:26:28;18.33;;;9.85;;
32946;SDS011;54465;51.230;22.504;2022-11-20T11:29:33;14.68;;;9.13;;
32946;SDS011;54465;51.230;22.504;2022-11-20T11:32:35;13.23;;;8.27;;
32946;SDS011;54465;51.230;22.504;2022-11-20T11:35:43;13.93;;;8.30;;
32946;SDS011;54465;51.230;22.504;2022-11-20T11:38:49;15.05;;;8.43;;
32946;SDS011;54465;51.230;22.504;2022-11-20T11:41:55;15.05;;;9.95;;
32946;SDS011;54465;51.230;22.504;2022-11-20T11:45:02;15.95;;;8.80;;
32946;SDS011;54465;51.230;22.504;2022-11-20T11:48:08;15.15;;;9.55;;
32946;SDS011;54465;51.230;22.504;2022-11-20T11:51:11;17.38;;;10.32;;
32946;SDS011;54465;51.230;22.504;2022-11-20T11:54:22;17.15;;;9.65;;
32946;SDS011;54465;51.230;22.504;2022-11-20T11:57:28;16.05;;;9.43;;
32946;SDS011;54465;51.230;22.504;2022-11-20T12:00:47;17.42;;;9.32;;
32946;SDS011;54465;51.230;22.504;2022-11-20T12:03:59;16.08;;;9.32;;
32946;SDS011;54465;51.230;22.504;2022-11-20T12:07:08;17.30;;;10.45;;
32946;SDS011;54465;51.230;22.504;2022-11-20T12:10:18;15.15;;;8.57;;
32946;SDS011;54465;51.230;22.504;2022-11-20T12:13:36;16.67;;;9.32;;
32946;SDS011;54465;51.230;22.504;2022-11-20T12:16:45;15.50;;;9.27;;
32946;SDS011;54465;51.230;22.504;2022-11-20T12:19:48;17.20;;;10.05;;
32946;SDS011;54465;51.230;22.504;2022-11-20T12:22:53;15.18;;;9.35;;
32946;SDS011;54465;51.230;22.504;2022-11-20T12:26:04;14.55;;;8.88;;
32946;SDS011;54465;51.230;22.504;2022-11-20T12:29:17;16.10;;;9.43;;
32946;SDS011;54465;51.230;22.504;2022-11-20T12:36:04;17.27;;;9.82;;
32946;SDS011;54465;51.230;22.504;2022-11-20T12:42:39;15.23;;;9.40;;
32946;SDS011;54465;51.230;22.504;2022-11-20T12:46:15;17.58;;;9.55;;
32946;SDS011;54465;51.230;22.504;2022-11-20T12:49:29;15.68;;;8.70;;
32946;SDS011;54465;51.230;22.504;2022-11-20T12:52:46;14.35;;;9.32;;
32946;SDS011;54465;51.230;22.504;2022-11-20T12:55:56;13.52;;;9.05;;
32946;SDS011;54465;51.230;22.504;2022-11-20T12:59:10;14.30;;;9.20;;
32946;SDS011;54465;51.230;22.504;2022-11-20T13:02:33;15.68;;;10.00;;
32946;SDS011;54465;51.230;22.504;2022-11-20T13:05:57;16.77;;;10.07;;
32946;SDS011;54465;51.230;22.504;2022-11-20T13:09:06;15.20;;;9.45;;
32946;SDS011;54465;51.230;22.504;2022-11-20T13:12:14;15.30;;;9.85;;
32946;SDS011;54465;51.230;22.504;2022-11-20T13:15:26;19.52;;;9.98;;
32946;SDS011;54465;51.230;22.504;2022-11-20T13:18:41;17.33;;;10.20;;
32946;SDS011;54465;51.230;22.504;2022-11-20T13:21:47;19.38;;;11.02;;
32946;SDS011;54465;51.230;22.504;2022-11-20T13:24:52;19.48;;;10.93;;
32946;SDS011;54465;51.230;22.504;2022-11-20T13:27:55;13.55;;;8.73;;
32946;SDS011;54465;51.230;22.504;2022-11-20T13:30:59;20.70;;;10.95;;
32946;SDS011;54465;51.230;22.504;2022-11-20T13:34:03;19.40;;;10.40;;
32946;SDS011;54465;51.230;22.504;2022-11-20T13:40:29;17.67;;;10.38;;
32946;SDS011;54465;51.230;22.504;2022-11-20T13:43:34;17.17;;;10.10;;
32946;SDS011;54465;51.230;22.504;2022-11-20T13:46:39;19.58;;;11.75;;
32946;SDS011;54465;51.230;22.504;2022-11-20T13:49:46;16.23;;;10.48;;
32946;SDS011;54465;51.230;22.504;2022-11-20T13:52:52;17.63;;;10.00;;
32946;SDS011;54465;51.230;22.504;2022-11-20T13:56:01;21.90;;;10.70;;
32946;SDS011;54465;51.230;22.504;2022-11-20T13:59:12;20.85;;;11.13;;
32946;SDS011;54465;51.230;22.504;2022-11-20T14:02:29;19.92;;;11.57;;
32946;SDS011;54465;51.230;22.504;2022-11-20T14:05:33;19.35;;;10.55;;
32946;SDS011;54465;51.230;22.504;2022-11-20T14:08:49;18.30;;;10.95;;
32946;SDS011;54465;51.230;22.504;2022-11-20T14:11:57;17.95;;;9.70;;
32946;SDS011;54465;51.230;22.504;2022-11-20T14:15:00;16.45;;;10.02;;
32946;SDS011;54465;51.230;22.504;2022-11-20T14:18:13;17.02;;;10.20;;
32946;SDS011;54465;51.230;22.504;2022-11-20T14:21:23;18.95;;;10.18;;
32946;SDS011;54465;51.230;22.504;2022-11-20T14:24:34;13.30;;;8.98;;
32946;SDS011;54465;51.230;22.504;2022-11-20T14:27:38;16.52;;;11.07;;
32946;SDS011;54465;51.230;22.504;2022-11-20T14:30:49;15.80;;;10.25;;
32946;SDS011;54465;51.230;22.504;2022-11-20T14:33:57;17.30;;;10.27;;
32946;SDS011;54465;51.230;22.504;2022-11-20T14:37:04;15.68;;;9.50;;
32946;SDS011;54465;51.230;22.504;2022-11-20T14:43:35;15.93;;;9.63;;
32946;SDS011;54465;51.230;22.504;2022-11-20T14:46:39;16.67;;;10.60;;
32946;SDS011;54465;51.230;22.504;2022-11-20T14:49:42;18.73;;;11.40;;
32946;SDS011;54465;51.230;22.504;2022-11-20T14:52:51;16.83;;;10.52;;
32946;SDS011;54465;51.230;22.504;2022-11-20T14:56:00;15.95;;;10.55;;
32946;SDS011;54465;51.230;22.504;2022-11-20T14:59:03;16.73;;;10.38;;
32946;SDS011;54465;51.230;22.504;2022-11-20T15:02:06;19.35;;;11.32;;
32946;SDS011;54465;51.230;22.504;2022-11-20T15:05:14;16.90;;;10.52;;
32946;SDS011;54465;51.230;22.504;2022-11-20T15:08:16;16.55;;;10.85;;
32946;SDS011;54465;51.230;22.504;2022-11-20T15:11:25;19.50;;;11.40;;
32946;SDS011;54465;51.230;22.504;2022-11-20T15:14:32;19.17;;;11.20;;
32946;SDS011;54465;51.230;22.504;2022-11-20T15:17:34;18.60;;;11.80;;
32946;SDS011;54465;51.230;22.504;2022-11-20T15:20:41;21.70;;;11.60;;
32946;SDS011;54465;51.230;22.504;2022-11-20T15:23:44;18.90;;;11.85;;
32946;SDS011;54465;51.230;22.504;2022-11-20T15:26:50;20.40;;;12.38;;
32946;SDS011;54465;51.230;22.504;2022-11-20T15:29:54;19.95;;;12.18;;
32946;SDS011;54465;51.230;22.504;2022-11-20T15:32:57;19.90;;;12.07;;
32946;SDS011;54465;51.230;22.504;2022-11-20T15:35:59;20.50;;;12.57;;
32946;SDS011;54465;51.230;22.504;2022-11-20T15:39:06;23.50;;;13.10;;
32946;SDS011;54465;51.230;22.504;2022-11-20T15:42:11;23.42;;;13.02;;
32946;SDS011;54465;51.230;22.504;2022-11-20T15:45:15;23.90;;;13.95;;
32946;SDS011;54465;51.230;22.504;2022-11-20T15:48:18;23.52;;;13.70;;
32946;SDS011;54465;51.230;22.504;2022-11-20T15:51:24;24.40;;;13.65;;
32946;SDS011;54465;51.230;22.504;2022-11-20T15:54:28;21.40;;;12.95;;
32946;SDS011;54465;51.230;22.504;2022-11-20T15:57:33;20.05;;;11.45;;
32946;SDS011;54465;51.230;22.504;2022-11-20T16:00:35;22.65;;;13.15;;
32946;SDS011;54465;51.230;22.504;2022-11-20T16:03:38;22.55;;;12.25;;
32946;SDS011;54465;51.230;22.504;2022-11-20T16:06:41;21.45;;;13.15;;
32946;SDS011;54465;51.230;22.504;2022-11-20T16:09:44;22.52;;;12.48;;
32946;SDS011;54465;51.230;22.504;2022-11-20T16:12:47;22.80;;;13.18;;
32946;SDS011;54465;51.230;22.504;2022-11-20T16:16:07;23.00;;;12.73;;
32946;SDS011;54465;51.230;22.504;2022-11-20T16:19:15;27.13;;;14.82;;
32946;SDS011;54465;51.230;22.504;2022-11-20T16:22:18;20.02;;;12.07;;
32946;SDS011;54465;51.230;22.504;2022-11-20T16:25:26;23.10;;;12.85;;
32946;SDS011;54465;51.230;22.504;2022-11-20T16:29:35;22.40;;;13.85;;
32946;SDS011;54465;51.230;22.504;2022-11-20T16:32:40;22.13;;;13.48;;
32946;SDS011;54465;51.230;22.504;2022-11-20T16:35:43;25.60;;;13.90;;
32946;SDS011;54465;51.230;22.504;2022-11-20T16:38:46;26.33;;;14.98;;
32946;SDS011;54465;51.230;22.504;2022-11-20T16:41:56;28.75;;;15.20;;
32946;SDS011;54465;51.230;22.504;2022-11-20T16:49:13;29.02;;;15.45;;
32946;SDS011;54465;51.230;22.504;2022-11-20T16:52:16;25.02;;;14.77;;
32946;SDS011;54465;51.230;22.504;2022-11-20T16:55:20;27.15;;;14.88;;
32946;SDS011;54465;51.230;22.504;2022-11-20T16:58:23;27.63;;;14.73;;
32946;SDS011;54465;51.230;22.504;2022-11-20T17:01:27;28.48;;;15.68;;
32946;SDS011;54465;51.230;22.504;2022-11-20T17:04:36;27.48;;;16.67;;
32946;SDS011;54465;51.230;22.504;2022-11-20T17:07:38;29.90;;;16.25;;
32946;SDS011;54465;51.230;22.504;2022-11-20T17:10:43;25.35;;;15.15;;
32946;SDS011;54465;51.230;22.504;2022-11-20T17:13:59;25.42;;;15.45;;
32946;SDS011;54465;51.230;22.504;2022-11-20T17:17:30;28.05;;;16.50;;
32946;SDS011;54465;51.230;22.504;2022-11-20T17:20:35;33.20;;;17.30;;
32946;SDS011;54465;51.230;22.504;2022-11-20T17:23:39;32.17;;;16.70;;
32946;SDS011;54465;51.230;22.504;2022-11-20T17:26:47;29.98;;;16.52;;
32946;SDS011;54465;51.230;22.504;2022-11-20T17:29:52;33.63;;;17.05;;
32946;SDS011;54465;51.230;22.504;2022-11-20T17:32:56;30.88;;;15.55;;
32946;SDS011;54465;51.230;22.504;2022-11-20T17:35:59;27.00;;;15.90;;
32946;SDS011;54465;51.230;22.504;2022-11-20T17:39:02;30.00;;;16.38;;
32946;SDS011;54465;51.230;22.504;2022-11-20T17:42:05;28.13;;;16.27;;
32946;SDS011;54465;51.230;22.504;2022-11-20T17:45:31;28.40;;;16.02;;
32946;SDS011;54465;51.230;22.504;2022-11-20T17:48:49;29.23;;;16.42;;
32946;SDS011;54465;51.230;22.504;2022-11-20T17:51:55;28.98;;;15.50;;
32946;SDS011;54465;51.230;22.504;2022-11-20T17:54:57;27.23;;;15.52;;
32946;SDS011;54465;51.230;22.504;2022-11-20T17:58:05;29.33;;;16.75;;
32946;SDS011;54465;51.230;22.504;2022-11-20T18:01:07;25.10;;;14.50;;
32946;SDS011;54465;51.230;22.504;2022-11-20T18:04:10;27.85;;;16.17;;
32946;SDS011;54465;51.230;22.504;2022-11-20T18:07:15;29.77;;;17.05;;
32946;SDS011;54465;51.230;22.504;2022-11-20T18:10:20;29.10;;;16.45;;
32946;SDS011;54465;51.230;22.504;2022-11-20T18:13:23;28.33;;;16.50;;
32946;SDS011;54465;51.230;22.504;2022-11-20T18:16:53;30.45;;;15.90;;
32946;SDS011;54465;51.230;22.504;2022-11-20T18:19:57;32.05;;;17.17;;
32946;SDS011;54465;51.230;22.504;2022-11-20T18:23:06;31.52;;;17.20;;